Time;durP1;ratioP1;P1;durP2;ratioP2;P2;SDS_P1;SDS_P2;PMS_P1;PMS_P2;Temp;Humidity;BMP_temperature;BMP_pressure;BME280_temperature;BME280_humidity;BME280_pressure;Samples;Min_cycle;Max_cycle;Signal;HPM_P1;HPM_P2
2022/06/03 00:00:10;;;;;;;8.88;8.27;;;;;;;;;;2073915;28;20240;-48
2022/06/03 00:01:20;;;;;;;9.15;8.23;;;;;;;;;;2073741;28;20606;-52
2022/06/03 00:02:20;;;;;;;8.65;7.95;;;;;;;;;;2073889;28;20252;-56
2022/06/03 00:03:36;;;;;;;8.07;7.40;;;;;;;;;;2074043;28;20247;-51
2022/06/03 00:04:55;;;;;;;8.35;7.75;;;;;;;;;;2073076;28;20179;-54
2022/06/03 00:05:55;;;;;;;8.40;7.78;;;;;;;;;;2074120;28;20576;-53
2022/06/03 00:07:13;;;;;;;8.70;7.95;;;;;;;;;;2073230;28;20196;-49
2022/06/03 00:08:29;;;;;;;9.40;8.55;;;;;;;;;;2073651;28;20153;-52
2022/06/03 00:09:39;;;;;;;9.35;8.68;;;;;;;;;;2074435;28;20185;-50
2022/06/03 00:10:57;;;;;;;8.45;7.72;;;;;;;;;;2074489;28;20244;-53
2022/06/03 00:12:01;;;;;;;9.25;7.70;;;;;;;;;;2074171;28;20649;-53
2022/06/03 00:13:10;;;;;;;9.15;8.35;;;;;;;;;;2074251;28;20165;-50
2022/06/03 00:14:11;;;;;;;8.70;8.05;;;;;;;;;;2072786;28;20197;-48
2022/06/03 00:15:17;;;;;;;9.68;8.88;;;;;;;;;;2073748;28;20219;-54
2022/06/03 00:16:27;;;;;;;9.85;8.77;;;;;;;;;;2072803;28;20197;-53
2022/06/03 00:17:36;;;;;;;10.02;9.15;;;;;;;;;;2073577;28;20665;-49
2022/06/03 00:18:36;;;;;;;10.27;9.38;;;;;;;;;;2073661;28;20512;-50
2022/06/03 00:19:45;;;;;;;10.52;9.60;;;;;;;;;;2073296;28;20173;-50
2022/06/03 00:20:45;;;;;;;10.70;9.80;;;;;;;;;;2073281;28;20721;-51
2022/06/03 00:22:04;;;;;;;9.77;8.98;;;;;;;;;;2073206;28;20185;-52
2022/06/03 00:23:23;;;;;;;10.52;9.63;;;;;;;;;;2073967;28;20160;-50
2022/06/03 00:24:45;;;;;;;9.85;9.15;;;;;;;;;;2072568;28;20263;-55
2022/06/03 00:26:00;;;;;;;10.10;9.35;;;;;;;;;;2073228;28;20165;-48
2022/06/03 00:27:04;;;;;;;10.57;9.68;;;;;;;;;;2073562;28;20204;-51
2022/06/03 00:28:13;;;;;;;10.82;9.93;;;;;;;;;;2073242;28;20688;-56
2022/06/03 00:29:24;;;;;;;10.15;9.40;;;;;;;;;;2073220;28;20184;-51
2022/06/03 00:30:27;;;;;;;10.50;9.75;;;;;;;;;;2074150;28;20185;-50
2022/06/03 00:31:42;;;;;;;10.80;9.93;;;;;;;;;;2073680;28;20184;-50
2022/06/03 00:32:53;;;;;;;10.63;9.73;;;;;;;;;;2074016;28;20168;-55
2022/06/03 00:34:00;;;;;;;10.55;9.75;;;;;;;;;;2069489;28;20278;-49
2022/06/03 00:35:19;;;;;;;11.15;10.23;;;;;;;;;;2073992;28;20157;-51
2022/06/03 00:36:25;;;;;;;10.75;9.85;;;;;;;;;;2074169;28;20513;-53
2022/06/03 00:37:41;;;;;;;11.40;10.50;;;;;;;;;;2073849;28;20595;-54
2022/06/03 00:39:00;;;;;;;11.75;10.70;;;;;;;;;;2073821;28;20152;-49
2022/06/03 00:40:15;;;;;;;11.88;10.88;;;;;;;;;;2073919;28;20199;-52
2022/06/03 00:41:28;;;;;;;12.32;11.35;;;;;;;;;;2074029;28;20177;-52
2022/06/03 00:42:36;;;;;;;12.32;11.05;;;;;;;;;;2074293;28;20576;-48
2022/06/03 00:43:59;;;;;;;11.95;10.85;;;;;;;;;;2074020;28;20200;-51
2022/06/03 00:45:02;;;;;;;10.43;9.60;;;;;;;;;;2073855;28;20157;-52
2022/06/03 00:46:21;;;;;;;10.70;9.88;;;;;;;;;;2073871;28;20293;-56
2022/06/03 00:47:29;;;;;;;11.60;10.55;;;;;;;;;;2073760;28;20256;-55
2022/06/03 00:48:48;;;;;;;10.98;10.05;;;;;;;;;;2073794;28;20605;-51
2022/06/03 00:50:14;;;;;;;10.95;10.00;;;;;;;;;;2073441;28;20227;-52
2022/06/03 00:51:15;;;;;;;10.05;9.25;;;;;;;;;;2072499;28;20220;-49
2022/06/03 00:52:15;;;;;;;11.38;9.82;;;;;;;;;;2073588;28;20192;-51
2022/06/03 00:53:25;;;;;;;10.75;9.93;;;;;;;;;;2073751;28;20185;-52
2022/06/03 00:54:34;;;;;;;10.68;9.80;;;;;;;;;;2073388;28;20196;-54
2022/06/03 00:55:41;;;;;;;10.23;9.15;;;;;;;;;;2075642;28;20153;-50
2022/06/03 00:57:00;;;;;;;9.75;9.05;;;;;;;;;;2075818;28;20259;-49
2022/06/03 00:58:12;;;;;;;9.70;9.00;;;;;;;;;;2075931;28;20173;-54
2022/06/03 00:59:28;;;;;;;9.35;8.50;;;;;;;;;;2075482;28;20255;-52
2022/06/03 01:00:55;;;;;;;9.27;8.57;;;;;;;;;;2075953;28;20532;-53
2022/06/03 01:02:14;;;;;;;10.15;9.25;;;;;;;;;;2090654;22;20833;-56
2022/06/03 01:03:33;;;;;;;8.77;8.18;;;;;;;;;;2080487;28;20176;-57
2022/06/03 01:04:42;;;;;;;9.38;8.48;;;;;;;;;;2083134;28;20318;-57
2022/06/03 01:05:48;;;;;;;9.95;9.05;;;;;;;;;;2083770;28;20230;-54
2022/06/03 01:07:10;;;;;;;10.55;9.75;;;;;;;;;;2082999;28;20187;-55
2022/06/03 01:08:15;;;;;;;10.68;9.68;;;;;;;;;;2084313;28;20180;-56
2022/06/03 01:09:29;;;;;;;9.98;9.07;;;;;;;;;;2085797;28;20152;-57
2022/06/03 01:10:41;;;;;;;9.43;8.63;;;;;;;;;;2084981;28;20160;-57
2022/06/03 01:11:48;;;;;;;10.35;9.38;;;;;;;;;;2077302;28;20157;-55
2022/06/03 01:13:07;;;;;;;9.63;8.82;;;;;;;;;;2084464;28;20177;-55
2022/06/03 01:14:19;;;;;;;9.73;8.93;;;;;;;;;;2083623;28;20212;-56
2022/06/03 01:15:29;;;;;;;8.65;8.00;;;;;;;;;;2082930;28;20255;-56
2022/06/03 01:16:45;;;;;;;9.88;9.13;;;;;;;;;;2081811;28;20156;-54
2022/06/03 01:17:50;;;;;;;9.38;8.68;;;;;;;;;;2081079;28;20163;-55
2022/06/03 01:19:00;;;;;;;9.85;9.02;;;;;;;;;;2080761;28;20160;-59
2022/06/03 01:20:01;;;;;;;9.82;9.13;;;;;;;;;;2081686;28;20203;-53
2022/06/03 01:21:09;;;;;;;10.00;9.20;;;;;;;;;;2081519;28;20176;-53
2022/06/03 01:22:36;;;;;;;9.70;8.75;;;;;;;;;;2081678;28;20200;-54
2022/06/03 01:23:54;;;;;;;9.02;8.23;;;;;;;;;;2082158;28;20160;-53
2022/06/03 01:24:55;;;;;;;8.98;8.27;;;;;;;;;;2081937;28;20258;-57
2022/06/03 01:26:05;;;;;;;10.00;8.88;;;;;;;;;;2073537;28;20656;-55
2022/06/03 01:27:25;;;;;;;9.65;8.95;;;;;;;;;;2074785;28;20556;-55
2022/06/03 01:28:32;;;;;;;10.10;9.10;;;;;;;;;;2082581;28;20175;-55
2022/06/03 01:29:47;;;;;;;10.93;10.07;;;;;;;;;;2074254;28;20169;-55
2022/06/03 01:31:00;;;;;;;10.15;9.27;;;;;;;;;;2076512;28;20180;-56
2022/06/03 01:32:09;;;;;;;10.68;9.68;;;;;;;;;;2082014;28;20283;-55
2022/06/03 01:33:16;;;;;;;12.85;11.73;;;;;;;;;;2082371;28;20180;-57
2022/06/03 01:34:42;;;;;;;11.82;10.73;;;;;;;;;;2079808;28;20199;-52
2022/06/03 01:36:01;;;;;;;10.27;9.38;;;;;;;;;;2081640;28;20160;-53
2022/06/03 01:37:08;;;;;;;11.00;9.90;;;;;;;;;;2077472;28;20179;-52
2022/06/03 01:38:24;;;;;;;11.80;10.60;;;;;;;;;;2082736;28;20259;-52
2022/06/03 01:39:24;;;;;;;10.60;9.80;;;;;;;;;;2082858;28;20194;-53
2022/06/03 01:40:54;;;;;;;10.90;10.10;;;;;;;;;;2083131;28;20192;-56
2022/06/03 01:41:57;;;;;;;10.93;10.07;;;;;;;;;;2082019;28;20191;-52
2022/06/03 01:43:20;;;;;;;10.65;9.65;;;;;;;;;;2081738;28;20207;-52
2022/06/03 01:44:28;;;;;;;10.32;9.52;;;;;;;;;;2059583;28;20671;-54
2022/06/03 01:45:54;;;;;;;11.23;10.32;;;;;;;;;;2082715;28;20157;-56
2022/06/03 01:47:13;;;;;;;12.30;11.20;;;;;;;;;;2082093;28;20256;-53
2022/06/03 01:48:17;;;;;;;11.73;10.73;;;;;;;;;;2081539;28;20187;-54
2022/06/03 01:49:33;;;;;;;11.13;10.23;;;;;;;;;;2082089;28;20176;-54
2022/06/03 01:50:34;;;;;;;10.57;9.77;;;;;;;;;;2074063;28;20173;-54
2022/06/03 01:51:50;;;;;;;11.75;10.77;;;;;;;;;;2075134;28;20193;-54
2022/06/03 01:53:00;;;;;;;11.93;11.02;;;;;;;;;;2074760;28;20200;-57
2022/06/03 01:54:19;;;;;;;10.23;9.43;;;;;;;;;;2073614;28;20290;-54
2022/06/03 01:55:22;;;;;;;10.63;9.68;;;;;;;;;;2074346;28;20295;-54
2022/06/03 01:56:22;;;;;;;10.55;9.65;;;;;;;;;;2080620;28;20168;-55
2022/06/03 01:57:26;;;;;;;11.50;10.48;;;;;;;;;;2083916;28;20625;-52
2022/06/03 01:58:38;;;;;;;11.73;10.73;;;;;;;;;;2084343;28;20176;-52
2022/06/03 01:59:57;;;;;;;12.05;11.10;;;;;;;;;;2084052;28;20241;-52
2022/06/03 02:01:10;;;;;;;11.90;11.02;;;;;;;;;;2084881;28;20164;-54
2022/06/03 02:02:29;;;;;;;11.40;10.43;;;;;;;;;;2084717;28;20258;-52
2022/06/03 02:03:42;;;;;;;11.23;10.30;;;;;;;;;;2084216;28;20145;-52
2022/06/03 02:05:08;;;;;;;11.50;10.57;;;;;;;;;;2082304;28;20249;-55
2022/06/03 02:06:09;;;;;;;10.93;10.02;;;;;;;;;;2081317;28;20263;-52
2022/06/03 02:07:09;;;;;;;11.35;10.48;;;;;;;;;;2084401;28;20179;-52
2022/06/03 02:08:22;;;;;;;11.38;10.43;;;;;;;;;;2083478;28;20282;-54
2022/06/03 02:09:35;;;;;;;12.05;10.95;;;;;;;;;;2084802;28;20168;-53
2022/06/03 02:10:38;;;;;;;12.00;10.98;;;;;;;;;;2085586;28;20186;-52
2022/06/03 02:11:58;;;;;;;12.77;11.55;;;;;;;;;;2085934;28;20196;-55
2022/06/03 02:13:04;;;;;;;10.30;9.40;;;;;;;;;;2086140;28;20192;-54
2022/06/03 02:14:07;;;;;;;12.18;11.15;;;;;;;;;;2085367;28;20230;-54
2022/06/03 02:15:34;;;;;;;11.90;10.80;;;;;;;;;;2086299;28;20187;-51
2022/06/03 02:16:34;;;;;;;11.73;10.80;;;;;;;;;;2061029;28;20210;-53
2022/06/03 02:17:45;;;;;;;11.75;10.68;;;;;;;;;;2077030;28;20154;-57
2022/06/03 02:19:01;;;;;;;12.50;11.27;;;;;;;;;;2077043;28;20204;-54
2022/06/03 02:20:07;;;;;;;11.93;10.93;;;;;;;;;;2074530;28;20173;-53
2022/06/03 02:21:08;;;;;;;11.75;10.75;;;;;;;;;;2074361;28;20185;-53
2022/06/03 02:22:27;;;;;;;12.27;11.25;;;;;;;;;;2074844;28;20189;-53
2022/06/03 02:23:34;;;;;;;12.30;11.30;;;;;;;;;;2074652;28;20169;-52
2022/06/03 02:24:55;;;;;;;12.30;11.10;;;;;;;;;;2081578;28;20252;-56
2022/06/03 02:26:07;;;;;;;12.27;11.18;;;;;;;;;;2082168;28;20146;-54
2022/06/03 02:27:27;;;;;;;11.43;10.43;;;;;;;;;;2083126;28;20184;-52
2022/06/03 02:28:39;;;;;;;12.65;11.40;;;;;;;;;;2083209;28;20263;-56
2022/06/03 02:31:39;;;;;;;13.48;12.18;;;;;;;;;;2082898;28;20240;-53
2022/06/03 02:32:40;;;;;;;12.18;11.15;;;;;;;;;;2070185;28;20215;-53
2022/06/03 02:33:41;;;;;;;13.55;12.30;;;;;;;;;;2079507;28;20208;-56
2022/06/03 02:35:00;;;;;;;12.80;11.55;;;;;;;;;;2073825;28;20231;-53
2022/06/03 02:36:21;;;;;;;12.15;11.15;;;;;;;;;;2087705;28;20262;-55
2022/06/03 02:37:37;;;;;;;11.55;10.75;;;;;;;;;;2078664;28;20169;-52
2022/06/03 02:38:49;;;;;;;12.43;11.32;;;;;;;;;;2089108;28;20262;-52
2022/06/03 02:40:19;;;;;;;12.43;11.23;;;;;;;;;;2087823;28;20171;-54
2022/06/03 02:41:28;;;;;;;11.60;10.60;;;;;;;;;;2062011;28;20625;-51
2022/06/03 02:42:28;;;;;;;11.95;10.88;;;;;;;;;;2074667;28;20176;-53
2022/06/03 02:43:35;;;;;;;11.40;10.40;;;;;;;;;;2075157;28;20173;-52
2022/06/03 02:44:53;;;;;;;12.02;11.07;;;;;;;;;;2089933;28;20171;-52
2022/06/03 02:46:02;;;;;;;12.02;10.93;;;;;;;;;;2087089;28;20163;-53
2022/06/03 02:47:28;;;;;;;13.48;12.38;;;;;;;;;;2083233;28;20172;-52
2022/06/03 02:48:48;;;;;;;13.30;12.15;;;;;;;;;;2083022;28;20175;-56
2022/06/03 02:49:57;;;;;;;12.63;11.43;;;;;;;;;;2082869;28;21371;-54
2022/06/03 02:51:01;;;;;;;13.40;12.27;;;;;;;;;;2083079;28;20164;-53
2022/06/03 02:52:01;;;;;;;13.05;11.55;;;;;;;;;;2082951;28;20274;-54
2022/06/03 02:53:15;;;;;;;13.02;11.98;;;;;;;;;;2083118;28;20269;-53
2022/06/03 02:54:15;;;;;;;13.70;12.40;;;;;;;;;;2081411;28;20536;-57
2022/06/03 02:55:34;;;;;;;14.95;13.45;;;;;;;;;;2074188;28;20180;-51
2022/06/03 02:56:47;;;;;;;13.70;12.50;;;;;;;;;;2082093;28;20535;-52
2022/06/03 02:57:56;;;;;;;13.82;12.57;;;;;;;;;;2083394;28;20172;-54
2022/06/03 02:59:19;;;;;;;16.25;14.38;;;;;;;;;;2082945;28;20164;-55
2022/06/03 03:00:24;;;;;;;16.83;15.05;;;;;;;;;;2074691;28;20179;-53
2022/06/03 03:01:32;;;;;;;28.95;23.50;;;;;;;;;;2083142;28;20622;-56
2022/06/03 03:02:44;;;;;;;19.45;16.98;;;;;;;;;;2083099;28;20176;-55
2022/06/03 03:04:04;;;;;;;17.20;15.43;;;;;;;;;;2083238;28;20164;-53
2022/06/03 03:05:07;;;;;;;16.35;14.75;;;;;;;;;;2082445;28;20194;-52
2022/06/03 03:06:26;;;;;;;20.55;18.30;;;;;;;;;;2074223;28;20193;-54
2022/06/03 03:07:38;;;;;;;15.75;14.25;;;;;;;;;;2082485;28;20565;-55
2022/06/03 03:08:51;;;;;;;14.43;12.98;;;;;;;;;;2074437;28;20180;-52
2022/06/03 03:09:58;;;;;;;12.90;11.70;;;;;;;;;;2075783;28;20204;-56
2022/06/03 03:11:04;;;;;;;14.20;13.00;;;;;;;;;;2085151;28;20191;-51
2022/06/03 03:12:08;;;;;;;14.10;12.73;;;;;;;;;;2085859;28;20694;-52
2022/06/03 03:13:08;;;;;;;11.57;10.57;;;;;;;;;;2088829;28;20164;-55
2022/06/03 03:14:12;;;;;;;17.67;15.43;;;;;;;;;;2087811;28;20168;-56
2022/06/03 03:15:17;;;;;;;14.32;13.00;;;;;;;;;;2088031;28;20188;-52
2022/06/03 03:16:18;;;;;;;15.80;14.30;;;;;;;;;;2086811;28;20254;-51
2022/06/03 03:17:24;;;;;;;14.68;13.35;;;;;;;;;;2086297;28;20226;-54
2022/06/03 03:18:27;;;;;;;19.55;16.13;;;;;;;;;;2085621;28;20251;-53
2022/06/03 03:19:48;;;;;;;17.60;15.80;;;;;;;;;;2084729;28;20186;-55
2022/06/03 03:20:49;;;;;;;17.67;15.13;;;;;;;;;;2078835;28;20249;-54
2022/06/03 03:21:52;;;;;;;25.10;20.25;;;;;;;;;;2085410;28;20718;-53
2022/06/03 03:23:11;;;;;;;17.55;15.60;;;;;;;;;;2084660;28;20188;-53
2022/06/03 03:24:26;;;;;;;14.32;11.88;;;;;;;;;;2081886;28;20174;-53
2022/06/03 03:25:29;;;;;;;14.30;12.82;;;;;;;;;;2082775;28;20206;-51
2022/06/03 03:26:48;;;;;;;13.05;11.85;;;;;;;;;;2082454;28;20230;-51
2022/06/03 03:27:51;;;;;;;12.70;11.45;;;;;;;;;;2082536;28;20172;-55
2022/06/03 03:29:24;;;;;;;12.57;11.48;;;;;;;;;;2082655;28;20188;-52
2022/06/03 03:30:29;;;;;;;13.25;12.05;;;;;;;;;;2041273;29;20577;-52
2022/06/03 03:31:35;;;;;;;13.15;11.88;;;;;;;;;;2072627;28;20630;-55
2022/06/03 03:32:53;;;;;;;13.02;11.85;;;;;;;;;;2081977;28;20220;-52
2022/06/03 03:33:54;;;;;;;13.90;12.70;;;;;;;;;;2081473;28;20282;-51
2022/06/03 03:34:54;;;;;;;13.55;12.35;;;;;;;;;;2082061;28;20223;-55
2022/06/03 03:36:14;;;;;;;14.98;13.57;;;;;;;;;;2082598;28;20223;-54
2022/06/03 03:37:24;;;;;;;13.85;12.65;;;;;;;;;;2057341;28;20186;-53
2022/06/03 03:38:35;;;;;;;14.18;12.95;;;;;;;;;;2081026;28;20180;-53
2022/06/03 03:39:38;;;;;;;14.25;12.85;;;;;;;;;;2082716;28;20230;-53
2022/06/03 03:40:50;;;;;;;14.23;12.82;;;;;;;;;;2081686;28;20179;-53
2022/06/03 03:41:56;;;;;;;13.77;12.68;;;;;;;;;;2081895;28;20267;-53
2022/06/03 03:43:15;;;;;;;14.05;12.75;;;;;;;;;;2082032;28;20195;-52
2022/06/03 03:44:19;;;;;;;12.77;11.75;;;;;;;;;;2081438;28;20175;-55
2022/06/03 03:45:37;;;;;;;13.48;12.32;;;;;;;;;;2082635;28;20555;-53
2022/06/03 03:46:56;;;;;;;12.95;11.77;;;;;;;;;;2082530;28;20171;-53
2022/06/03 03:48:15;;;;;;;13.43;12.20;;;;;;;;;;2082669;28;20271;-52
2022/06/03 03:49:39;;;;;;;13.35;11.98;;;;;;;;;;2082414;28;20170;-53
2022/06/03 03:50:58;;;;;;;13.85;12.50;;;;;;;;;;2073946;28;20598;-52
2022/06/03 03:52:17;;;;;;;13.88;12.68;;;;;;;;;;2073033;28;20208;-56
2022/06/03 03:53:17;;;;;;;14.05;12.85;;;;;;;;;;2074200;28;20187;-54
2022/06/03 03:54:38;;;;;;;13.43;12.32;;;;;;;;;;2075402;28;20180;-53
2022/06/03 03:55:58;;;;;;;13.13;12.10;;;;;;;;;;2081808;28;20211;-55
2022/06/03 03:56:58;;;;;;;16.38;13.07;;;;;;;;;;2082411;28;20176;-55
2022/06/03 03:57:58;;;;;;;16.23;13.80;;;;;;;;;;2082338;28;20171;-56
2022/06/03 03:59:28;;;;;;;14.13;12.98;;;;;;;;;;2082252;28;20169;-55
2022/06/03 04:00:41;;;;;;;13.70;12.50;;;;;;;;;;2068533;28;20189;-53
2022/06/03 04:02:00;;;;;;;13.68;12.52;;;;;;;;;;2082074;28;20184;-52
2022/06/03 04:03:18;;;;;;;13.15;11.95;;;;;;;;;;2082388;28;20164;-54
2022/06/03 04:04:37;;;;;;;13.35;11.93;;;;;;;;;;2081157;28;20160;-52
2022/06/03 04:05:45;;;;;;;13.30;12.20;;;;;;;;;;2082329;28;20222;-56
2022/06/03 04:07:03;;;;;;;14.10;12.80;;;;;;;;;;2082271;28;20618;-55
2022/06/03 04:08:33;;;;;;;13.90;12.60;;;;;;;;;;2082114;28;20168;-52
2022/06/03 04:09:33;;;;;;;13.02;11.82;;;;;;;;;;2082217;28;20190;-53
2022/06/03 04:10:57;;;;;;;13.35;12.25;;;;;;;;;;2081923;28;20267;-56
2022/06/03 04:12:06;;;;;;;12.13;11.18;;;;;;;;;;2073887;28;20573;-55
2022/06/03 04:13:16;;;;;;;13.80;12.57;;;;;;;;;;2082277;28;20215;-55
2022/06/03 04:14:16;;;;;;;13.00;11.85;;;;;;;;;;2081031;28;20524;-52
2022/06/03 04:15:35;;;;;;;12.68;11.68;;;;;;;;;;2081286;28;20171;-52
2022/06/03 04:16:42;;;;;;;12.07;11.00;;;;;;;;;;2081761;28;20254;-54
2022/06/03 04:18:01;;;;;;;12.63;11.63;;;;;;;;;;2082175;28;20281;-54
2022/06/03 04:19:04;;;;;;;12.93;11.77;;;;;;;;;;2081972;28;20247;-52
2022/06/03 04:20:20;;;;;;;12.63;11.63;;;;;;;;;;2082098;28;20164;-56
2022/06/03 04:21:39;;;;;;;12.45;11.25;;;;;;;;;;2082314;28;20590;-56
2022/06/03 04:22:45;;;;;;;13.02;11.93;;;;;;;;;;2082130;28;20630;-51
2022/06/03 04:24:05;;;;;;;11.40;10.50;;;;;;;;;;2082264;28;20191;-55
2022/06/03 04:25:17;;;;;;;12.65;11.45;;;;;;;;;;2073861;28;20185;-55
2022/06/03 04:26:43;;;;;;;11.93;10.98;;;;;;;;;;2074007;28;20508;-54
2022/06/03 04:27:44;;;;;;;11.48;10.57;;;;;;;;;;2068925;28;20204;-54
2022/06/03 04:29:34;;;;;;;12.93;11.73;;;;;;;;;;2073895;28;20177;-55
2022/06/03 04:30:53;;;;;;;11.00;9.90;;;;;;;;;;2033031;29;20172;-53
2022/06/03 04:31:59;;;;;;;11.40;10.40;;;;;;;;;;2033131;29;20270;-52
2022/06/03 04:33:18;;;;;;;11.57;10.55;;;;;;;;;;2062545;28;20585;-55
2022/06/03 04:34:18;;;;;;;11.85;10.77;;;;;;;;;;2078641;28;20607;-53
2022/06/03 04:35:18;;;;;;;12.65;11.65;;;;;;;;;;2081841;28;20177;-52
2022/06/03 04:36:25;;;;;;;12.57;11.55;;;;;;;;;;2081891;28;20172;-54
2022/06/03 04:37:49;;;;;;;12.68;11.57;;;;;;;;;;2081966;28;20199;-52
2022/06/03 04:39:08;;;;;;;12.35;11.35;;;;;;;;;;2081249;28;20164;-55
2022/06/03 04:40:17;;;;;;;12.20;11.20;;;;;;;;;;2081662;28;20168;-57
2022/06/03 04:41:42;;;;;;;14.98;10.73;;;;;;;;;;2081854;28;20559;-55
2022/06/03 04:42:51;;;;;;;11.98;10.98;;;;;;;;;;2081489;28;20243;-53
2022/06/03 04:44:09;;;;;;;11.32;10.43;;;;;;;;;;2081422;28;20206;-55
2022/06/03 04:45:12;;;;;;;11.50;10.40;;;;;;;;;;2073196;28;20165;-53
2022/06/03 04:46:25;;;;;;;11.57;10.57;;;;;;;;;;2073211;28;20184;-52
2022/06/03 04:47:34;;;;;;;11.68;10.68;;;;;;;;;;2073571;28;20207;-54
2022/06/03 04:48:46;;;;;;;11.27;10.27;;;;;;;;;;2073913;28;20176;-54
2022/06/03 04:49:59;;;;;;;11.82;10.82;;;;;;;;;;2076044;28;20184;-51
2022/06/03 04:51:11;;;;;;;11.60;10.63;;;;;;;;;;2082118;28;20700;-54
2022/06/03 04:52:15;;;;;;;11.00;9.95;;;;;;;;;;2081952;28;20203;-55
2022/06/03 04:53:24;;;;;;;10.52;9.75;;;;;;;;;;2081247;28;20319;-55
2022/06/03 04:54:33;;;;;;;10.93;10.07;;;;;;;;;;2080136;28;20633;-57
2022/06/03 04:55:52;;;;;;;11.45;10.02;;;;;;;;;;2081689;28;20172;-54
2022/06/03 04:57:05;;;;;;;10.02;9.23;;;;;;;;;;2081845;28;20659;-53
2022/06/03 04:58:08;;;;;;;11.88;10.50;;;;;;;;;;2081876;28;20169;-56
2022/06/03 04:59:27;;;;;;;10.60;9.70;;;;;;;;;;2081955;28;20645;-56
2022/06/03 05:00:39;;;;;;;10.48;9.68;;;;;;;;;;2081918;28;20596;-54
2022/06/03 05:01:41;;;;;;;10.70;9.75;;;;;;;;;;2080910;28;20701;-55
2022/06/03 05:02:56;;;;;;;9.90;9.10;;;;;;;;;;2081813;28;20248;-53
2022/06/03 05:04:15;;;;;;;9.38;8.57;;;;;;;;;;2081269;28;20262;-51
2022/06/03 05:05:15;;;;;;;10.95;10.05;;;;;;;;;;2081265;28;20176;-55
2022/06/03 05:06:35;;;;;;;9.98;9.07;;;;;;;;;;2064964;28;20794;-51
2022/06/03 05:07:42;;;;;;;10.15;9.18;;;;;;;;;;2067635;28;20154;-52
2022/06/03 05:08:47;;;;;;;9.63;8.93;;;;;;;;;;2073016;28;20589;-54
2022/06/03 05:10:06;;;;;;;10.23;9.38;;;;;;;;;;2065570;28;20184;-53
2022/06/03 05:11:06;;;;;;;10.80;9.00;;;;;;;;;;2083238;28;20255;-49
2022/06/03 05:12:13;;;;;;;9.00;8.05;;;;;;;;;;2081323;28;20204;-53
2022/06/03 05:13:16;;;;;;;9.00;8.20;;;;;;;;;;2081990;28;20218;-52
2022/06/03 05:14:34;;;;;;;8.90;8.20;;;;;;;;;;2080387;28;20559;-53
2022/06/03 05:15:35;;;;;;;8.95;8.15;;;;;;;;;;2081596;28;20207;-55
2022/06/03 05:16:44;;;;;;;8.93;8.25;;;;;;;;;;2081188;28;20179;-52
2022/06/03 05:18:03;;;;;;;10.32;9.02;;;;;;;;;;2081502;28;20187;-54
2022/06/03 05:19:13;;;;;;;10.98;9.15;;;;;;;;;;2081297;28;20167;-58
2022/06/03 05:20:22;;;;;;;10.98;8.45;;;;;;;;;;2081475;28;20251;-53
2022/06/03 05:21:22;;;;;;;14.15;9.23;;;;;;;;;;2081172;28;20261;-51
2022/06/03 05:22:41;;;;;;;9.00;8.13;;;;;;;;;;2081145;28;20243;-53
2022/06/03 05:23:54;;;;;;;9.48;8.68;;;;;;;;;;2081490;28;20247;-53
2022/06/03 05:24:56;;;;;;;8.68;7.82;;;;;;;;;;2081323;28;20157;-51
2022/06/03 05:26:17;;;;;;;9.05;8.35;;;;;;;;;;2080742;28;20180;-53
2022/06/03 05:27:29;;;;;;;9.40;8.63;;;;;;;;;;2067623;28;20263;-55
2022/06/03 05:28:39;;;;;;;8.10;7.50;;;;;;;;;;2073058;28;20232;-51
2022/06/03 05:29:58;;;;;;;9.18;8.38;;;;;;;;;;2065664;28;20181;-50
2022/06/03 05:31:13;;;;;;;8.65;7.97;;;;;;;;;;2067328;28;20590;-52
2022/06/03 05:32:20;;;;;;;30.35;13.70;;;;;;;;;;2078697;28;20208;-52
2022/06/03 05:33:30;;;;;;;16.75;10.43;;;;;;;;;;2080949;28;20606;-52
2022/06/03 05:34:46;;;;;;;9.70;8.82;;;;;;;;;;2079791;28;20204;-53
2022/06/03 05:36:14;;;;;;;10.23;9.23;;;;;;;;;;2080386;28;20604;-55
2022/06/03 05:37:17;;;;;;;8.98;8.10;;;;;;;;;;2081298;28;20178;-52
2022/06/03 05:38:26;;;;;;;9.45;8.52;;;;;;;;;;2080572;28;20691;-53
2022/06/03 05:39:32;;;;;;;9.02;8.35;;;;;;;;;;2080839;28;20263;-52
2022/06/03 05:40:51;;;;;;;9.88;8.93;;;;;;;;;;2081755;28;20568;-55
2022/06/03 05:42:27;;;;;;;9.40;8.70;;;;;;;;;;2080732;28;20203;-51
2022/06/03 05:43:48;;;;;;;9.10;8.40;;;;;;;;;;2081329;28;20161;-55
2022/06/03 05:45:07;;;;;;;8.75;7.85;;;;;;;;;;2074026;28;20236;-55
2022/06/03 05:46:10;;;;;;;8.20;7.60;;;;;;;;;;2081378;28;20184;-55
2022/06/03 05:47:15;;;;;;;8.82;7.95;;;;;;;;;;2081625;28;20168;-53
2022/06/03 05:48:18;;;;;;;8.50;7.90;;;;;;;;;;2081097;28;20215;-57
2022/06/03 05:49:19;;;;;;;8.23;7.63;;;;;;;;;;2080708;28;20176;-51
2022/06/03 05:50:37;;;;;;;28.40;12.52;;;;;;;;;;2080419;28;20187;-54
2022/06/03 05:51:57;;;;;;;10.23;8.40;;;;;;;;;;2081022;28;20246;-53
2022/06/03 05:53:11;;;;;;;9.02;8.15;;;;;;;;;;2080940;28;20156;-52
2022/06/03 05:54:14;;;;;;;8.48;7.68;;;;;;;;;;2080089;28;20214;-52
2022/06/03 05:55:17;;;;;;;8.02;7.40;;;;;;;;;;2081030;28;20595;-51
2022/06/03 05:56:38;;;;;;;8.10;7.50;;;;;;;;;;2081062;28;20172;-53
2022/06/03 05:57:38;;;;;;;8.48;7.63;;;;;;;;;;2081069;28;20615;-54
2022/06/03 05:58:45;;;;;;;8.45;7.75;;;;;;;;;;2072362;28;20169;-53
2022/06/03 05:59:45;;;;;;;7.70;7.07;;;;;;;;;;2073470;28;20642;-52
2022/06/03 06:00:57;;;;;;;8.38;7.60;;;;;;;;;;2072439;28;20168;-52
2022/06/03 06:02:16;;;;;;;7.80;7.22;;;;;;;;;;2073969;28;20772;-53
2022/06/03 06:03:32;;;;;;;8.35;7.50;;;;;;;;;;2080726;28;20183;-55
2022/06/03 06:04:51;;;;;;;7.70;7.13;;;;;;;;;;2080099;28;20164;-51
2022/06/03 06:05:55;;;;;;;9.00;8.05;;;;;;;;;;2080772;28;20197;-54
2022/06/03 06:06:55;;;;;;;8.27;7.47;;;;;;;;;;2064712;28;20208;-51
2022/06/03 06:08:05;;;;;;;9.13;8.43;;;;;;;;;;2065553;28;20210;-53
2022/06/03 06:09:23;;;;;;;7.93;7.20;;;;;;;;;;2077928;28;20176;-54
2022/06/03 06:10:33;;;;;;;8.23;7.63;;;;;;;;;;2080654;28;20287;-54
2022/06/03 06:11:52;;;;;;;8.07;7.47;;;;;;;;;;2080918;28;20214;-53
2022/06/03 06:12:58;;;;;;;11.20;8.30;;;;;;;;;;2081569;28;20199;-54
2022/06/03 06:13:59;;;;;;;9.25;8.00;;;;;;;;;;2082090;28;20175;-57
2022/06/03 06:14:59;;;;;;;7.93;7.25;;;;;;;;;;2082113;28;20199;-54
2022/06/03 06:16:02;;;;;;;8.38;7.78;;;;;;;;;;2083209;28;20294;-57
2022/06/03 06:17:10;;;;;;;8.23;7.47;;;;;;;;;;2083128;28;20261;-54
2022/06/03 06:18:24;;;;;;;6.97;6.47;;;;;;;;;;2083245;28;20217;-57
2022/06/03 06:19:37;;;;;;;7.55;7.03;;;;;;;;;;2081955;28;20168;-58
2022/06/03 06:20:49;;;;;;;7.78;7.18;;;;;;;;;;2075657;28;20168;-54
2022/06/03 06:21:55;;;;;;;7.57;7.05;;;;;;;;;;2074153;28;20173;-51
2022/06/03 06:23:07;;;;;;;8.20;6.75;;;;;;;;;;2074997;28;20183;-56
2022/06/03 06:24:10;;;;;;;28.92;10.90;;;;;;;;;;2074091;28;20169;-52
2022/06/03 06:25:13;;;;;;;42.03;15.13;;;;;;;;;;2074021;28;20172;-56
2022/06/03 06:26:17;;;;;;;13.60;7.90;;;;;;;;;;2081814;28;20200;-55
2022/06/03 06:27:17;;;;;;;8.18;7.00;;;;;;;;;;2082359;28;20712;-53
2022/06/03 06:28:43;;;;;;;7.75;7.00;;;;;;;;;;2083210;28;20255;-54
2022/06/03 06:30:02;;;;;;;7.60;6.90;;;;;;;;;;2081903;28;20665;-53
2022/06/03 06:31:15;;;;;;;25.80;9.70;;;;;;;;;;2082303;28;20195;-54
2022/06/03 06:32:15;;;;;;;53.10;16.20;;;;;;;;;;2082310;28;20198;-51
2022/06/03 06:33:24;;;;;;;15.68;8.57;;;;;;;;;;2082754;28;20196;-55
2022/06/03 06:34:45;;;;;;;8.30;7.35;;;;;;;;;;2081112;28;20168;-56
2022/06/03 06:35:48;;;;;;;64.38;15.90;;;;;;;;;;2065336;28;20670;-54
2022/06/03 06:36:48;;;;;;;31.70;10.40;;;;;;;;;;2079604;28;20183;-54
2022/06/03 06:38:01;;;;;;;7.63;6.93;;;;;;;;;;2082498;28;20207;-55
2022/06/03 06:39:22;;;;;;;7.68;6.53;;;;;;;;;;2082831;28;20153;-54
2022/06/03 06:40:41;;;;;;;6.90;6.25;;;;;;;;;;2082854;28;20251;-56
2022/06/03 06:42:00;;;;;;;7.32;6.72;;;;;;;;;;2081909;28;20260;-56
2022/06/03 06:43:08;;;;;;;7.50;7.00;;;;;;;;;;2082235;28;20178;-58
2022/06/03 06:44:10;;;;;;;9.40;7.13;;;;;;;;;;2081616;28;20610;-55
2022/06/03 06:45:22;;;;;;;10.50;7.18;;;;;;;;;;2083019;28;20622;-54
2022/06/03 06:46:42;;;;;;;7.88;7.07;;;;;;;;;;2083004;28;20229;-53
2022/06/03 06:47:51;;;;;;;6.82;6.25;;;;;;;;;;2082920;28;20197;-53
2022/06/03 06:48:57;;;;;;;6.95;6.35;;;;;;;;;;2082964;28;20192;-54
2022/06/03 06:50:06;;;;;;;6.35;5.88;;;;;;;;;;2082956;28;20558;-55
2022/06/03 06:51:22;;;;;;;6.50;6.00;;;;;;;;;;2083125;28;20169;-55
2022/06/03 06:52:42;;;;;;;6.28;5.88;;;;;;;;;;2082742;28;20223;-56
2022/06/03 06:53:46;;;;;;;6.10;5.60;;;;;;;;;;2082878;28;20749;-53
2022/06/03 06:54:55;;;;;;;5.80;5.30;;;;;;;;;;2081766;28;20258;-53
2022/06/03 06:56:03;;;;;;;5.85;5.45;;;;;;;;;;2082993;28;20164;-56
2022/06/03 06:57:12;;;;;;;6.30;5.70;;;;;;;;;;2082787;28;20211;-54
2022/06/03 06:58:42;;;;;;;6.78;6.13;;;;;;;;;;2082711;28;20263;-56
2022/06/03 06:59:49;;;;;;;7.00;6.30;;;;;;;;;;2082818;28;20629;-53
2022/06/03 07:00:50;;;;;;;6.28;5.70;;;;;;;;;;2082699;28;20163;-53
2022/06/03 07:02:56;;;;;;;6.45;5.65;;;;;;;;;;2076176;28;20220;-50
2022/06/03 07:04:02;;;;;;;6.60;5.97;;;;;;;;;;2081885;28;20250;-55